Time;durP1;ratioP1;P1;durP2;ratioP2;P2;SDS_P1;SDS_P2;PMS_P1;PMS_P2;Temp;Humidity;BMP_temperature;BMP_pressure;BME280_temperature;BME280_humidity;BME280_pressure;Samples;Min_cycle;Max_cycle;Signal;HPM_P1;HPM_P2
2022/07/02 00:00:04;;;;;;;5.90;5.37;;;14.50;99.90;;;;;;5040007;28;20493;-53
2022/07/02 00:02:35;;;;;;;6.17;5.57;;;14.50;99.90;;;;;;5041343;28;20553;-53
2022/07/02 00:05:05;;;;;;;5.60;5.17;;;14.40;99.90;;;;;;5038362;28;20552;-52
2022/07/02 00:07:31;;;;;;;5.83;5.33;;;14.40;99.90;;;;;;5042362;28;20897;-52
2022/07/02 00:10:00;;;;;;;5.80;5.40;;;14.40;99.90;;;;;;5042477;28;20523;-54
2022/07/02 00:12:28;;;;;;;6.63;5.97;;;14.30;99.90;;;;;;5040499;28;20517;-52
2022/07/02 00:14:57;;;;;;;6.77;4.93;;;14.30;99.90;;;;;;5041613;28;20485;-53
2022/07/02 00:17:24;;;;;;;5.20;4.90;;;14.20;99.90;;;;;;5042540;28;20555;-53
2022/07/02 00:19:52;;;;;;;6.13;5.00;;;14.20;99.90;;;;;;5040250;28;20549;-53
2022/07/02 00:22:19;;;;;;;6.60;6.00;;;14.10;99.90;;;;;;5042358;28;20501;-52
2022/07/02 00:24:46;;;;;;;5.37;4.37;;;14.10;99.90;;;;;;5040611;28;20873;-53
2022/07/02 00:27:16;;;;;;;6.17;5.67;;;14.10;99.90;;;;;;5040875;28;20461;-53
2022/07/02 00:29:48;;;;;;;5.50;5.10;;;14.00;99.90;;;;;;5040336;28;20464;-52
2022/07/02 00:32:14;;;;;;;4.60;4.20;;;14.00;99.90;;;;;;5042816;28;20509;-52
2022/07/02 00:34:44;;;;;;;7.83;4.57;;;14.00;99.90;;;;;;5044882;28;21053;-52
2022/07/02 00:37:11;;;;;;;12.13;5.37;;;14.00;94.10;;;;;;5043872;28;20523;-52
2022/07/02 00:39:39;;;;;;;6.37;5.03;;;13.90;99.90;;;;;;5045453;28;20461;-53
2022/07/02 00:42:07;;;;;;;5.30;4.93;;;13.90;97.70;;;;;;5046480;28;20525;-52
2022/07/02 00:44:36;;;;;;;6.30;4.77;;;13.90;99.90;;;;;;5046320;28;20486;-52
2022/07/02 00:47:05;;;;;;;6.00;5.50;;;13.90;99.90;;;;;;5045022;28;20947;-52
2022/07/02 00:49:33;;;;;;;6.57;5.77;;;13.90;99.90;;;;;;5045854;28;20457;-53
2022/07/02 00:52:00;;;;;;;5.20;4.90;;;13.80;99.90;;;;;;5045275;28;20503;-53
2022/07/02 00:54:27;;;;;;;5.27;4.87;;;13.80;99.90;;;;;;5045395;28;21219;-53
2022/07/02 00:56:54;;;;;;;4.97;4.67;;;13.80;99.90;;;;;;5047125;28;20936;-52
2022/07/02 00:59:21;;;;;;;5.73;5.33;;;13.70;99.90;;;;;;5043809;28;20489;-54
2022/07/02 01:01:49;;;;;;;9.40;6.30;;;13.80;99.90;;;;;;5044167;28;20481;-54
2022/07/02 01:04:17;;;;;;;7.20;5.10;;;13.70;99.90;;;;;;5046624;28;20870;-52
2022/07/02 01:06:44;;;;;;;7.90;4.80;;;13.80;87.90;;;;;;5041483;28;20546;-54
2022/07/02 01:11:59;;;;;;;6.03;5.43;;;13.80;90.30;;;;;;5038309;28;20564;-55
2022/07/02 01:14:26;;;;;;;8.27;5.60;;;13.80;96.60;;;;;;5043749;28;20513;-53
2022/07/02 01:16:55;;;;;;;5.83;5.43;;;13.80;90.30;;;;;;5044127;28;20493;-53
2022/07/02 01:19:23;;;;;;;6.07;5.50;;;13.70;91.50;;;;;;5044239;28;20938;-54
2022/07/02 01:22:15;;;;;;;5.20;4.83;;;13.70;96.40;;;;;;5043002;28;20549;-52
2022/07/02 01:24:42;;;;;;;5.73;5.23;;;13.80;94.50;;;;;;5046611;28;20972;-53
2022/07/02 01:27:09;;;;;;;5.67;5.17;;;13.70;97.50;;;;;;5048011;28;20485;-53
2022/07/02 01:29:36;;;;;;;6.10;5.70;;;13.80;84.90;;;;;;5049001;28;20531;-53
2022/07/02 01:32:03;;;;;;;6.30;5.80;;;13.80;89.70;;;;;;5044596;28;20531;-53
2022/07/02 01:34:35;;;;;;;8.60;6.70;;;13.80;74.90;;;;;;5042498;28;20615;-52
2022/07/02 01:37:01;;;;;;;6.50;5.90;;;13.90;76.40;;;;;;5040050;28;20550;-55
2022/07/02 01:39:29;;;;;;;6.17;5.57;;;14.00;71.40;;;;;;5044046;28;21041;-52
2022/07/02 01:41:56;;;;;;;7.50;6.80;;;14.00;65.90;;;;;;5043156;28;20481;-54
2022/07/02 01:44:22;;;;;;;7.50;6.90;;;14.10;66.60;;;;;;5047960;28;20492;-53
2022/07/02 01:46:49;;;;;;;7.70;7.00;;;14.10;66.80;;;;;;5043103;28;20502;-53
2022/07/02 01:49:16;;;;;;;11.03;7.10;;;14.10;68.20;;;;;;5040866;28;20519;-53
2022/07/02 01:51:42;;;;;;;8.53;7.43;;;14.20;70.30;;;;;;5043547;28;20984;-54
2022/07/02 01:54:09;;;;;;;8.23;7.50;;;14.20;70.80;;;;;;5044328;28;20513;-52
2022/07/02 01:56:37;;;;;;;10.27;7.73;;;14.20;73.60;;;;;;5045258;28;20480;-53
2022/07/02 01:59:04;;;;;;;7.13;6.43;;;14.20;71.30;;;;;;5046554;28;20481;-52
2022/07/02 02:01:31;;;;;;;8.30;6.80;;;14.20;72.90;;;;;;5050858;28;20532;-53
2022/07/02 02:03:58;;;;;;;9.17;8.20;;;14.20;77.00;;;;;;5056660;28;20478;-53
2022/07/02 02:06:25;;;;;;;9.63;7.77;;;14.20;79.50;;;;;;5045922;28;20494;-54
2022/07/02 02:08:51;;;;;;;7.50;6.83;;;14.20;82.30;;;;;;5043751;28;20461;-52
2022/07/02 02:11:18;;;;;;;7.77;7.07;;;14.20;84.00;;;;;;5044578;28;20524;-52
2022/07/02 02:13:46;;;;;;;7.27;6.63;;;14.20;86.30;;;;;;5050977;28;20481;-52
2022/07/02 02:16:12;;;;;;;8.40;7.60;;;14.20;88.00;;;;;;5049765;28;20909;-52
2022/07/02 02:18:39;;;;;;;7.50;6.80;;;14.10;93.40;;;;;;5044471;28;20976;-52
2022/07/02 02:21:06;;;;;;;8.00;7.40;;;14.00;94.50;;;;;;5044224;28;20951;-52
2022/07/02 02:23:32;;;;;;;8.17;7.57;;;14.10;87.30;;;;;;5042594;28;20569;-52
2022/07/02 02:25:59;;;;;;;6.73;6.23;;;14.00;91.00;;;;;;5046513;28;20478;-52
2022/07/02 02:28:25;;;;;;;8.50;7.60;;;14.00;86.80;;;;;;5044853;28;20516;-53
2022/07/02 02:30:53;;;;;;;8.50;7.80;;;14.00;90.70;;;;;;5044122;28;20470;-52
2022/07/02 02:33:20;;;;;;;16.53;6.93;;;13.90;91.80;;;;;;5051855;28;20575;-52
2022/07/02 02:35:46;;;;;;;10.33;7.67;;;13.90;85.80;;;;;;5062276;28;20887;-52
2022/07/02 02:38:13;;;;;;;8.53;7.70;;;13.90;85.00;;;;;;5041144;28;20880;-52
2022/07/02 02:40:40;;;;;;;8.10;7.40;;;13.90;85.00;;;;;;5042242;28;20572;-51
2022/07/02 02:43:06;;;;;;;6.87;6.37;;;13.80;82.50;;;;;;5052259;28;20531;-52
2022/07/02 02:45:33;;;;;;;8.23;7.53;;;13.80;87.30;;;;;;5049242;28;20494;-51
2022/07/02 02:48:01;;;;;;;8.83;8.07;;;13.80;90.40;;;;;;5042726;28;21049;-51
2022/07/02 02:50:27;;;;;;;9.60;8.30;;;13.70;92.60;;;;;;5048117;28;20877;-52
2022/07/02 02:52:54;;;;;;;8.33;7.63;;;13.70;86.00;;;;;;5039831;28;20585;-52
2022/07/02 02:55:21;;;;;;;9.87;8.87;;;13.70;82.90;;;;;;5051267;28;20514;-52
2022/07/02 02:57:48;;;;;;;7.80;7.20;;;13.70;84.90;;;;;;5051819;28;20489;-52
2022/07/02 03:00:15;;;;;;;7.97;7.27;;;13.60;91.40;;;;;;5051574;28;20559;-52
2022/07/02 03:02:41;;;;;;;8.87;8.17;;;13.60;90.70;;;;;;5054698;28;20523;-52
2022/07/02 03:05:09;;;;;;;13.30;8.20;;;13.60;86.10;;;;;;5049629;28;20490;-52
2022/07/02 03:07:36;;;;;;;8.10;7.40;;;13.60;83.00;;;;;;5048769;28;20486;-52
2022/07/02 03:10:02;;;;;;;8.57;7.87;;;13.60;85.30;;;;;;5042075;28;20490;-52
2022/07/02 03:12:29;;;;;;;9.07;8.17;;;13.50;89.90;;;;;;5042547;28;20525;-52
2022/07/02 03:14:55;;;;;;;8.03;7.37;;;13.50;87.90;;;;;;5043598;28;20513;-52
2022/07/02 03:17:22;;;;;;;9.63;8.63;;;13.50;93.10;;;;;;5049842;28;20896;-52
2022/07/02 03:19:49;;;;;;;9.30;8.40;;;13.50;92.80;;;;;;5052777;28;20491;-52
2022/07/02 03:22:17;;;;;;;8.27;7.67;;;13.50;85.00;;;;;;5055467;28;20559;-51
2022/07/02 03:24:43;;;;;;;9.23;8.30;;;13.50;88.50;;;;;;5046914;28;20466;-52
2022/07/02 03:27:10;;;;;;;9.73;8.93;;;13.50;80.50;;;;;;5042824;28;20492;-52
2022/07/02 03:29:36;;;;;;;9.20;8.40;;;13.50;79.70;;;;;;5051990;28;20568;-52
2022/07/02 03:32:03;;;;;;;9.50;8.70;;;13.50;81.60;;;;;;5050845;28;20527;-52
2022/07/02 03:34:30;;;;;;;9.20;8.40;;;13.50;83.90;;;;;;5040543;28;20956;-52
2022/07/02 03:36:57;;;;;;;9.97;8.97;;;13.50;88.90;;;;;;5044991;28;20559;-52
2022/07/02 03:39:25;;;;;;;8.17;7.57;;;13.50;86.40;;;;;;5043482;28;20493;-52
2022/07/02 03:41:51;;;;;;;9.50;8.80;;;13.60;76.00;;;;;;5045858;28;20485;-54
2022/07/02 03:44:18;;;;;;;8.90;8.07;;;13.50;83.90;;;;;;5041378;28;20523;-52
2022/07/02 03:46:44;;;;;;;9.17;8.40;;;13.60;77.20;;;;;;5041293;28;20543;-51
2022/07/02 03:49:11;;;;;;;9.63;8.70;;;13.60;85.90;;;;;;5047905;28;20497;-52
2022/07/02 03:51:37;;;;;;;10.20;7.68;;;13.60;87.50;;;;;;5039903;28;20479;-52
2022/07/02 03:54:04;;;;;;;9.27;8.47;;;13.60;86.50;;;;;;5038343;28;20222;-51
2022/07/02 03:56:32;;;;;;;13.50;9.37;;;13.60;76.00;;;;;;5044173;28;20490;-51
2022/07/02 03:58:59;;;;;;;9.97;8.97;;;13.60;81.70;;;;;;5039573;28;20542;-52
2022/07/02 04:01:25;;;;;;;10.70;9.43;;;13.70;81.90;;;;;;5040352;28;20490;-51
2022/07/02 04:03:52;;;;;;;10.70;9.40;;;13.70;81.50;;;;;;5043895;28;20509;-52
2022/07/02 04:06:19;;;;;;;9.43;8.67;;;13.80;80.90;;;;;;5042406;28;20494;-52
2022/07/02 04:08:45;;;;;;;11.23;10.17;;;13.90;79.80;;;;;;5040527;28;20520;-52
2022/07/02 04:11:12;;;;;;;11.13;10.03;;;13.90;79.90;;;;;;5043465;28;21056;-52
2022/07/02 04:13:40;;;;;;;10.57;9.53;;;14.00;81.00;;;;;;5041719;28;20521;-52
2022/07/02 04:16:06;;;;;;;10.90;9.90;;;14.00;76.50;;;;;;5042970;28;20486;-51
2022/07/02 04:18:33;;;;;;;9.60;8.67;;;14.10;78.70;;;;;;5040491;28;20454;-52
2022/07/02 04:20:59;;;;;;;10.03;9.07;;;14.10;79.50;;;;;;5043358;28;20490;-53
2022/07/02 04:23:26;;;;;;;13.67;9.30;;;14.20;80.80;;;;;;5041470;28;20509;-52
2022/07/02 04:25:52;;;;;;;9.43;8.67;;;14.20;88.70;;;;;;5041203;28;20578;-52
2022/07/02 04:28:19;;;;;;;10.03;9.10;;;14.30;88.40;;;;;;5043608;28;20850;-52
2022/07/02 04:30:47;;;;;;;15.27;11.30;;;14.30;93.80;;;;;;5036941;28;20489;-52
2022/07/02 04:33:13;;;;;;;10.93;9.97;;;14.30;92.50;;;;;;5044500;28;20568;-52
2022/07/02 04:35:40;;;;;;;11.03;9.23;;;14.40;94.50;;;;;;5041152;28;20571;-52
2022/07/02 04:38:07;;;;;;;11.27;10.10;;;14.40;96.40;;;;;;5042140;28;20580;-52
2022/07/02 04:40:33;;;;;;;14.93;10.97;;;14.50;99.70;;;;;;5039825;28;20555;-52
2022/07/02 04:43:00;;;;;;;10.50;9.50;;;14.50;99.90;;;;;;5045562;28;20524;-52
2022/07/02 04:45:26;;;;;;;11.90;9.40;;;14.60;99.90;;;;;;5041343;28;20496;-52
2022/07/02 04:47:54;;;;;;;10.90;9.90;;;14.60;99.90;;;;;;5044628;28;20536;-52
2022/07/02 04:50:21;;;;;;;10.53;9.40;;;14.60;99.90;;;;;;5042548;28;20493;-52
2022/07/02 04:52:48;;;;;;;14.50;10.17;;;14.70;99.90;;;;;;5039049;28;20570;-52
2022/07/02 04:55:15;;;;;;;10.33;9.33;;;14.70;99.90;;;;;;5042031;28;20878;-52
2022/07/02 04:57:41;;;;;;;15.37;10.43;;;14.80;99.90;;;;;;5038747;28;20477;-52
2022/07/02 05:00:09;;;;;;;11.50;9.80;;;14.80;99.90;;;;;;5040014;28;20543;-52
2022/07/02 05:02:36;;;;;;;11.77;10.50;;;14.90;99.90;;;;;;5042200;28;20573;-52
2022/07/02 05:05:05;;;;;;;13.73;8.70;;;14.90;99.90;;;;;;5043314;28;20454;-52
2022/07/02 05:07:31;;;;;;;12.40;9.47;;;15.00;99.90;;;;;;5041481;28;20585;-53
2022/07/02 05:09:58;;;;;;;16.90;10.70;;;15.10;99.90;;;;;;5060493;22;20504;-51
2022/07/02 05:12:25;;;;;;;11.77;9.77;;;15.10;99.90;;;;;;5063925;28;20937;-53
2022/07/02 05:14:52;;;;;;;19.70;10.43;;;15.20;99.90;;;;;;5060165;28;20483;-52
2022/07/02 05:17:18;;;;;;;10.17;9.13;;;15.30;99.90;;;;;;5065262;28;20983;-53
2022/07/02 05:19:45;;;;;;;10.30;8.77;;;15.30;99.90;;;;;;5072991;28;20473;-51
2022/07/02 05:22:13;;;;;;;10.87;9.50;;;15.30;99.90;;;;;;5067661;28;20978;-51
2022/07/02 05:24:40;;;;;;;9.10;8.20;;;15.40;99.90;;;;;;5068206;28;20881;-51
2022/07/02 05:27:06;;;;;;;9.73;8.80;;;15.50;99.90;;;;;;5064171;28;20476;-51
2022/07/02 05:29:33;;;;;;;9.00;8.20;;;15.50;99.90;;;;;;5064818;28;20480;-51
2022/07/02 05:32:00;;;;;;;14.30;8.63;;;15.60;99.90;;;;;;5065355;28;20452;-51
2022/07/02 05:34:26;;;;;;;9.90;7.00;;;15.60;99.90;;;;;;5070390;28;20519;-52
2022/07/02 05:36:53;;;;;;;10.57;8.47;;;15.70;99.90;;;;;;5063911;28;20485;-51
2022/07/02 05:39:21;;;;;;;8.20;7.47;;;15.80;99.90;;;;;;5063168;28;20507;-52
2022/07/02 05:41:48;;;;;;;9.43;8.20;;;15.80;99.90;;;;;;5064618;28;20981;-51
2022/07/02 05:44:14;;;;;;;7.83;7.23;;;15.90;99.90;;;;;;5065142;28;20479;-52
2022/07/02 05:46:41;;;;;;;9.13;7.97;;;15.90;99.90;;;;;;5062640;28;20449;-53
2022/07/02 05:49:08;;;;;;;8.67;7.80;;;16.00;84.00;;;;;;5073051;28;20480;-52
2022/07/02 05:51:34;;;;;;;8.53;7.83;;;16.00;33.30;;;;;;5070471;28;20496;-52
2022/07/02 05:54:01;;;;;;;9.10;8.20;;;16.10;44.10;;;;;;5070463;28;21011;-52
2022/07/02 05:56:29;;;;;;;16.33;8.20;;;16.10;46.90;;;;;;5061948;28;20491;-52
2022/07/02 05:58:55;;;;;;;7.57;7.00;;;16.10;52.00;;;;;;5067720;28;20488;-53
2022/07/02 06:01:22;;;;;;;9.07;8.20;;;16.20;51.70;;;;;;5067332;28;20997;-53
2022/07/02 06:03:48;;;;;;;11.90;7.53;;;16.20;58.70;;;;;;5072276;28;20483;-52
2022/07/02 06:08:59;;;;;;;8.03;7.10;;;16.40;62.90;;;;;;5062832;28;20957;-53
2022/07/02 06:11:26;;;;;;;12.30;8.00;;;16.40;74.20;;;;;;5060378;28;20499;-53
2022/07/02 06:13:54;;;;;;;8.20;7.47;;;16.50;67.30;;;;;;5062953;28;20489;-53
2022/07/02 06:16:21;;;;;;;8.20;7.40;;;16.60;69.90;;;;;;5062480;28;20489;-52
2022/07/02 06:18:47;;;;;;;7.70;7.00;;;16.60;75.60;;;;;;5063696;28;21059;-52
2022/07/02 06:21:14;;;;;;;11.40;6.73;;;16.60;82.20;;;;;;5063609;28;21831;-51
2022/07/02 06:23:41;;;;;;;7.10;6.53;;;16.70;80.90;;;;;;5063843;28;20489;-52
2022/07/02 06:26:07;;;;;;;11.53;8.30;;;16.70;77.20;;;;;;5061398;28;20938;-52
2022/07/02 06:28:34;;;;;;;10.50;7.63;;;16.80;77.30;;;;;;5061135;28;20986;-51
2022/07/02 06:31:02;;;;;;;8.60;7.67;;;16.90;81.90;;;;;;5059458;28;20533;-54
2022/07/02 06:33:28;;;;;;;10.90;7.57;;;17.00;91.00;;;;;;5070406;28;20489;-54
2022/07/02 06:35:55;;;;;;;8.00;6.63;;;17.10;99.80;;;;;;5064682;28;21024;-54
2022/07/02 06:38:21;;;;;;;18.40;9.90;;;17.20;97.10;;;;;;5060152;28;20465;-54
2022/07/02 06:40:48;;;;;;;14.10;7.97;;;17.20;99.90;;;;;;5064249;28;21070;-54
2022/07/02 06:43:14;;;;;;;7.20;6.50;;;17.30;99.90;;;;;;5065362;28;20514;-52
2022/07/02 06:45:40;;;;;;;8.37;7.57;;;17.40;99.90;;;;;;5061859;28;20446;-54
2022/07/02 06:48:08;;;;;;;8.10;7.30;;;17.40;99.90;;;;;;5068531;28;20202;-52
2022/07/02 06:50:35;;;;;;;17.93;8.00;;;17.60;99.90;;;;;;5057560;28;20534;-50
2022/07/02 06:53:02;;;;;;;9.30;7.20;;;17.60;99.90;;;;;;5061711;28;20958;-51
2022/07/02 06:55:28;;;;;;;11.63;7.53;;;17.60;99.90;;;;;;5063563;28;20574;-52
2022/07/02 06:57:55;;;;;;;6.70;5.73;;;17.70;99.90;;;;;;5070775;28;20453;-57
2022/07/02 07:00:23;;;;;;;8.70;7.80;;;17.80;99.90;;;;;;5065752;28;20539;-51
2022/07/02 07:02:50;;;;;;;8.03;7.23;;;17.90;99.90;;;;;;5060199;28;20458;-54
2022/07/02 07:05:18;;;;;;;7.50;6.87;;;17.90;99.90;;;;;;5058563;28;20457;-51
2022/07/02 07:07:45;;;;;;;7.00;6.40;;;18.00;99.90;;;;;;5062629;28;20465;-52
2022/07/02 07:10:11;;;;;;;6.27;5.77;;;18.10;99.90;;;;;;5060914;28;20954;-52
2022/07/02 07:12:38;;;;;;;5.77;5.27;;;18.20;99.90;;;;;;5062381;28;20449;-51
2022/07/02 07:15:07;;;;;;;6.37;5.40;;;18.30;99.90;;;;;;5063036;28;20481;-50
2022/07/02 07:17:34;;;;;;;7.07;5.87;;;18.40;99.90;;;;;;5058191;28;20456;-50
2022/07/02 07:20:01;;;;;;;5.83;5.17;;;18.50;99.90;;;;;;5062311;28;20479;-57
2022/07/02 07:22:29;;;;;;;5.63;5.10;;;18.60;99.90;;;;;;5059909;28;20461;-51
2022/07/02 07:24:55;;;;;;;5.83;5.37;;;18.70;99.90;;;;;;5062629;28;20488;-50
2022/07/02 07:27:22;;;;;;;7.00;5.00;;;18.70;99.90;;;;;;5064639;28;21203;-51
2022/07/02 07:29:49;;;;;;;5.13;4.73;;;18.80;20.80;;;;;;5061413;28;20653;-51
2022/07/02 07:32:16;;;;;;;5.07;4.30;;;19.00;28.90;;;;;;5059239;28;20490;-51
2022/07/02 07:34:42;;;;;;;11.53;4.83;;;19.10;37.50;;;;;;5060186;28;20522;-50
2022/07/02 07:37:09;;;;;;;4.57;4.17;;;19.10;40.40;;;;;;5060378;28;20515;-50
2022/07/02 07:39:37;;;;;;;3.93;3.60;;;19.20;40.60;;;;;;5061094;28;20570;-50
2022/07/02 07:42:05;;;;;;;3.90;3.60;;;19.30;42.40;;;;;;5061027;28;20493;-57
2022/07/02 07:44:32;;;;;;;5.97;3.83;;;19.30;68.40;;;;;;5063164;28;21425;-50
2022/07/02 07:46:59;;;;;;;5.37;4.03;;;19.40;64.60;;;;;;5061998;28;20725;-51
2022/07/02 07:49:26;;;;;;;6.80;3.83;;;19.50;66.70;;;;;;5064936;28;20847;-51
2022/07/02 07:51:52;;;;;;;7.70;4.00;;;19.60;64.40;;;;;;5058615;28;20460;-51
2022/07/02 07:54:19;;;;;;;5.60;2.83;;;19.70;99.90;;;;;;5056751;28;20838;-51
2022/07/02 07:56:47;;;;;;;3.00;1.90;;;19.80;99.90;;;;;;5063268;28;20512;-53
2022/07/02 07:59:14;;;;;;;4.37;2.10;;;19.90;99.90;;;;;;5060280;28;20471;-51
2022/07/02 08:01:40;;;;;;;4.60;2.73;;;20.00;99.90;;;;;;5059496;28;20579;-52
2022/07/02 08:04:07;;;;;;;2.50;2.30;;;20.10;99.90;;;;;;5056357;28;20480;-52
2022/07/02 08:06:33;;;;;;;8.47;2.20;;;20.20;99.90;;;;;;5064110;28;20485;-51
2022/07/02 08:09:00;;;;;;;5.57;2.17;;;20.30;99.90;;;;;;5059044;28;20878;-52
2022/07/02 08:11:27;;;;;;;5.87;2.80;;;20.30;99.90;;;;;;5059804;28;20994;-51
2022/07/02 08:13:55;;;;;;;2.60;2.40;;;20.40;99.90;;;;;;5061265;28;20532;-52
2022/07/02 08:16:22;;;;;;;5.63;1.83;;;20.40;99.90;;;;;;5059194;28;20492;-52
2022/07/02 08:18:49;;;;;;;4.23;1.83;;;20.30;99.90;;;;;;5059545;28;20493;-51
2022/07/02 08:21:16;;;;;;;2.77;1.90;;;20.40;99.90;;;;;;5053005;28;20500;-51
2022/07/02 08:23:43;;;;;;;4.43;2.00;;;20.60;99.90;;;;;;5062722;28;20498;-51
2022/07/02 08:26:09;;;;;;;2.47;2.27;;;20.60;99.90;;;;;;5063836;28;20496;-52
2022/07/02 08:28:36;;;;;;;3.10;2.03;;;20.70;99.90;;;;;;5055023;28;20458;-51
2022/07/02 08:31:04;;;;;;;5.93;2.10;;;20.60;99.90;;;;;;5055649;28;20512;-51
2022/07/02 08:33:30;;;;;;;2.60;1.80;;;20.70;99.90;;;;;;5052454;28;20542;-51
2022/07/02 08:35:57;;;;;;;3.07;1.90;;;20.80;99.90;;;;;;5057717;28;20558;-52
2022/07/02 08:38:24;;;;;;;2.43;2.00;;;20.90;99.90;;;;;;5054272;28;20522;-51
2022/07/02 08:40:50;;;;;;;3.67;2.17;;;21.00;99.90;;;;;;5059176;28;20509;-51
2022/07/02 08:43:18;;;;;;;2.73;1.93;;;21.20;99.90;;;;;;5062488;28;21036;-51
2022/07/02 08:45:45;;;;;;;2.57;1.73;;;21.20;99.90;;;;;;5058983;28;20583;-51
2022/07/02 08:48:13;;;;;;;8.83;1.77;;;21.30;99.90;;;;;;5066497;28;20522;-51
2022/07/02 08:50:41;;;;;;;4.23;2.83;;;21.40;99.90;;;;;;5068767;28;20484;-51
2022/07/02 08:53:08;;;;;;;2.37;2.20;;;21.40;99.90;;;;;;5073908;28;20494;-51
2022/07/02 08:55:36;;;;;;;6.73;2.17;;;21.50;99.90;;;;;;5070099;28;20585;-53
2022/07/02 08:58:02;;;;;;;6.13;1.73;;;21.60;99.90;;;;;;5068247;28;20569;-52
2022/07/02 09:00:29;;;;;;;4.80;1.73;;;21.70;99.90;;;;;;5070213;28;20484;-53
2022/07/02 09:02:58;;;;;;;5.97;1.80;;;21.80;99.90;;;;;;5072950;28;20867;-53
2022/07/02 09:05:28;;;;;;;4.23;2.10;;;22.00;99.90;;;;;;5067105;28;20489;-53
2022/07/02 09:07:56;;;;;;;3.10;1.90;;;22.10;99.90;;;;;;5071275;28;20464;-53
2022/07/02 09:10:24;;;;;;;6.60;4.60;;;22.20;99.90;;;;;;5071950;28;20499;-53
2022/07/02 09:12:52;;;;;;;4.10;3.33;;;22.30;99.90;;;;;;5071275;28;20465;-54
2022/07/02 09:15:18;;;;;;;7.17;5.80;;;22.30;99.90;;;;;;5069301;28;20518;-53
2022/07/02 09:17:45;;;;;;;3.60;1.47;;;22.40;99.90;;;;;;5072709;28;20890;-54
2022/07/02 09:20:13;;;;;;;2.47;1.90;;;22.20;99.90;;;;;;5072523;28;20484;-53
2022/07/02 09:22:43;;;;;;;3.00;2.17;;;22.20;99.90;;;;;;5071034;28;20489;-53
2022/07/02 09:25:13;;;;;;;4.40;1.80;;;22.30;99.90;;;;;;5070637;28;20858;-53
2022/07/02 09:27:40;;;;;;;1.93;1.80;;;22.30;99.90;;;;;;5070456;28;20479;-53
2022/07/02 09:30:09;;;;;;;2.40;1.43;;;22.30;99.90;;;;;;5073284;28;20464;-54
2022/07/02 09:32:41;;;;;;;8.03;1.50;;;22.30;99.90;;;;;;5068895;28;20448;-54
2022/07/02 09:35:16;;;;;;;2.60;1.50;;;22.10;99.90;;;;;;5071344;28;20465;-53
2022/07/02 09:37:44;;;;;;;3.97;2.43;;;22.20;99.90;;;;;;5073152;28;20950;-54
2022/07/02 09:40:12;;;;;;;5.20;2.03;;;22.30;99.90;;;;;;5055770;28;20481;-52
2022/07/02 09:42:38;;;;;;;2.13;1.77;;;22.50;99.90;;;;;;5066196;28;20456;-52
2022/07/02 09:45:06;;;;;;;2.47;1.33;;;22.50;99.90;;;;;;5067137;28;20493;-52
2022/07/02 09:47:35;;;;;;;4.70;2.03;;;22.60;99.90;;;;;;5072218;28;20541;-52
2022/07/02 09:50:06;;;;;;;3.70;1.57;;;22.80;99.90;;;;;;5051904;28;20571;-51
2022/07/02 09:52:33;;;;;;;4.10;1.10;;;22.90;99.90;;;;;;5068901;28;20484;-51
2022/07/02 09:55:01;;;;;;;3.00;1.53;;;23.00;99.90;;;;;;5068877;28;20457;-51
2022/07/02 09:57:28;;;;;;;8.03;1.43;;;23.10;99.90;;;;;;5069930;28;20477;-52
2022/07/02 10:00:03;;;;;;;4.20;1.30;;;23.10;99.90;;;;;;5068827;28;20469;-52
2022/07/02 10:02:30;;;;;;;3.97;1.43;;;23.20;99.90;;;;;;5064992;28;20461;-52
2022/07/02 10:04:57;;;;;;;2.00;1.37;;;23.20;99.90;;;;;;5067640;28;20489;-52
2022/07/02 10:07:25;;;;;;;2.07;1.30;;;23.20;99.90;;;;;;5070535;28;20966;-51
2022/07/02 10:09:52;;;;;;;3.67;1.40;;;23.20;99.90;;;;;;5071765;28;20484;-51
2022/07/02 10:12:20;;;;;;;1.50;1.40;;;23.20;99.90;;;;;;5066081;28;20534;-52
2022/07/02 10:14:48;;;;;;;1.63;1.30;;;23.10;99.90;;;;;;5069736;28;20457;-52
2022/07/02 10:17:16;;;;;;;3.43;1.30;;;23.20;99.90;;;;;;5067250;28;20488;-52
2022/07/02 10:19:43;;;;;;;6.10;1.30;;;22.90;99.90;;;;;;5060838;28;20493;-51
2022/07/02 10:22:10;;;;;;;1.10;1.10;;;22.70;99.90;;;;;;5067571;28;20462;-52
2022/07/02 10:24:37;;;;;;;5.60;1.10;;;22.50;99.90;;;;;;5068220;28;20875;-51
2022/07/02 10:27:04;;;;;;;1.20;1.10;;;22.60;99.90;;;;;;5068766;28;20460;-51
2022/07/02 10:29:33;;;;;;;1.57;1.10;;;22.80;99.90;;;;;;5069871;28;20476;-52
2022/07/02 10:32:13;;;;;;;1.30;1.10;;;23.10;99.90;;;;;;5065521;28;20464;-52
2022/07/02 10:34:48;;;;;;;8.40;2.43;;;23.30;99.90;;;;;;5066599;28;20465;-52
2022/07/02 10:37:16;;;;;;;2.23;1.03;;;23.60;99.90;;;;;;5066912;28;20477;-52
2022/07/02 10:39:43;;;;;;;2.63;1.33;;;23.60;99.90;;;;;;5068206;28;20481;-52
2022/07/02 10:42:10;;;;;;;1.10;1.00;;;23.70;99.90;;;;;;5064749;28;20990;-52
2022/07/02 10:44:39;;;;;;;3.17;1.23;;;23.80;99.90;;;;;;5068259;28;20966;-52
2022/07/02 10:47:06;;;;;;;1.57;1.03;;;24.00;99.90;;;;;;5069882;28;21217;-52
2022/07/02 10:49:33;;;;;;;4.43;1.20;;;24.10;99.90;;;;;;5070541;28;20480;-51
2022/07/02 10:52:04;;;;;;;0.97;0.97;;;23.90;99.90;;;;;;5067817;28;20464;-53
2022/07/02 10:54:32;;;;;;;2.30;1.30;;;23.60;99.90;;;;;;5064183;28;21012;-53
2022/07/02 10:56:58;;;;;;;1.33;1.03;;;23.40;99.90;;;;;;5064314;28;20948;-53
2022/07/02 10:59:27;;;;;;;5.43;1.40;;;23.30;99.90;;;;;;5060581;28;20473;-54
2022/07/02 11:02:02;;;;;;;1.60;1.03;;;23.30;99.90;;;;;;5065651;28;20865;-53
2022/07/02 11:04:29;;;;;;;4.37;1.40;;;23.30;99.90;;;;;;5065456;28;20506;-53
2022/07/02 11:07:05;;;;;;;9.43;1.83;;;23.10;99.90;;;;;;5067104;28;20462;-54
2022/07/02 11:09:32;;;;;;;2.80;1.30;;;23.00;99.90;;;;;;5065317;28;20492;-51
2022/07/02 11:12:00;;;;;;;2.00;1.00;;;23.10;99.90;;;;;;5062802;28;20526;-51
2022/07/02 11:14:28;;;;;;;1.43;1.30;;;23.20;99.90;;;;;;5057082;28;20489;-52
2022/07/02 11:16:56;;;;;;;1.93;1.50;;;23.40;99.90;;;;;;5066250;28;20560;-51
2022/07/02 11:19:26;;;;;;;1.90;1.63;;;23.50;99.90;;;;;;5064519;28;20476;-51
2022/07/02 11:21:54;;;;;;;3.83;1.00;;;23.70;99.90;;;;;;5065102;28;20473;-52
2022/07/02 11:24:23;;;;;;;4.40;1.50;;;23.70;99.90;;;;;;5063187;28;20489;-51
2022/07/02 11:26:50;;;;;;;3.97;1.40;;;23.50;99.90;;;;;;5067414;28;20453;-52
2022/07/02 11:29:17;;;;;;;2.20;1.37;;;23.30;99.90;;;;;;5061474;28;20456;-51
2022/07/02 11:31:46;;;;;;;1.50;1.03;;;23.20;99.90;;;;;;5068346;28;20460;-52
2022/07/02 11:34:15;;;;;;;2.97;0.93;;;23.00;99.90;;;;;;5055388;28;20464;-53
2022/07/02 11:36:43;;;;;;;3.20;1.10;;;23.00;99.90;;;;;;5054019;28;20462;-52
2022/07/02 11:39:12;;;;;;;2.20;1.30;;;23.20;99.90;;;;;;5060253;28;20461;-50
2022/07/02 11:41:39;;;;;;;1.80;1.27;;;23.40;99.90;;;;;;5065052;28;20976;-52
2022/07/02 11:44:17;;;;;;;2.30;1.37;;;23.70;99.90;;;;;;5058164;28;20949;-51
2022/07/02 11:46:45;;;;;;;5.67;1.37;;;24.10;99.90;;;;;;5058305;28;20450;-52
2022/07/02 11:49:16;;;;;;;4.37;1.03;;;24.40;99.90;;;;;;5060315;28;20487;-52
2022/07/02 11:51:45;;;;;;;2.30;0.87;;;24.50;99.90;;;;;;5064014;28;20465;-51
2022/07/02 11:54:13;;;;;;;9.20;1.63;;;24.30;99.90;;;;;;5063498;28;20457;-52
2022/07/02 11:56:41;;;;;;;3.63;1.40;;;24.30;99.90;;;;;;5067563;28;20481;-51
2022/07/02 11:59:09;;;;;;;3.33;1.27;;;24.50;99.90;;;;;;5080998;22;20542;-53
2022/07/02 12:01:37;;;;;;;1.47;1.37;;;24.50;99.90;;;;;;5060916;28;20554;-53
2022/07/02 12:04:06;;;;;;;4.53;1.10;;;24.60;99.90;;;;;;5067186;28;20465;-53
2022/07/02 12:06:34;;;;;;;0.90;0.90;;;24.70;99.90;;;;;;5061713;28;20462;-53
2022/07/02 12:09:06;;;;;;;1.77;1.13;;;24.80;99.90;;;;;;5057323;28;20476;-53
2022/07/02 12:11:33;;;;;;;2.20;1.40;;;24.80;99.90;;;;;;5066299;28;20839;-53
2022/07/02 12:14:01;;;;;;;3.97;1.37;;;24.80;99.90;;;;;;5065716;28;20484;-53
2022/07/02 12:16:28;;;;;;;2.83;1.40;;;25.00;99.90;;;;;;5065688;28;20508;-54
2022/07/02 12:19:00;;;;;;;4.20;0.90;;;25.00;99.90;;;;;;5063586;28;20546;-52
2022/07/02 12:21:34;;;;;;;1.63;1.40;;;25.00;99.90;;;;;;5058922;28;20485;-53
2022/07/02 12:24:02;;;;;;;6.33;2.13;;;24.90;99.90;;;;;;5065382;28;20457;-54
2022/07/02 12:26:30;;;;;;;2.30;1.00;;;24.70;99.90;;;;;;5059731;28;20462;-53
2022/07/02 12:31:49;;;;;;;2.00;1.23;;;24.80;99.90;;;;;;5059817;28;20451;-53
2022/07/02 12:34:16;;;;;;;3.43;1.00;;;24.60;99.90;;;;;;5068827;28;20465;-54
2022/07/02 12:36:54;;;;;;;1.53;1.33;;;24.40;99.90;;;;;;5066278;28;20480;-53
2022/07/02 12:39:23;;;;;;;10.00;1.20;;;24.30;99.90;;;;;;5064236;28;20561;-53
2022/07/02 12:41:50;;;;;;;3.83;1.27;;;24.50;99.90;;;;;;5069353;28;20885;-52
2022/07/02 12:44:21;;;;;;;1.50;1.10;;;24.60;99.90;;;;;;5064997;28;20485;-53
2022/07/02 12:46:49;;;;;;;2.60;1.43;;;24.50;99.90;;;;;;5065225;28;20943;-53
2022/07/02 12:49:17;;;;;;;6.10;0.90;;;24.60;99.90;;;;;;5065847;28;20490;-53
2022/07/02 12:51:52;;;;;;;2.77;1.00;;;24.80;99.90;;;;;;5067927;28;20498;-53
2022/07/02 12:54:18;;;;;;;9.43;1.17;;;25.10;99.90;;;;;;5066405;28;20563;-53